createdAt,value
2023-03-29T00:00:14.799Z,68.25
2023-03-29T00:05:22.920Z,69.03
2023-03-29T00:10:24.990Z,69.33
2023-03-29T00:15:27.872Z,68.70
2023-03-29T00:20:38.774Z,68.23
2023-03-29T00:25:49.994Z,68.55
2023-03-29T00:30:54.491Z,68.79
2023-03-29T00:35:56.504Z,69.98
2023-03-29T00:41:01.820Z,70.88
2023-03-29T00:46:04.517Z,69.97
2023-03-29T00:51:11.052Z,70.26
2023-03-29T00:56:27.735Z,71.31
2023-03-29T01:02:07.278Z,72.29
2023-03-29T01:07:54.938Z,72.89
2023-03-29T01:13:11.900Z,73.22
2023-03-29T01:18:16.922Z,73.76
2023-03-29T01:23:34.687Z,73.98
2023-03-29T01:28:55.643Z,73.29
2023-03-29T01:34:11.636Z,74.20
2023-03-29T01:39:19.043Z,74.63
2023-03-29T01:44:40.591Z,74.83
2023-03-29T01:49:59.826Z,75.22
2023-03-29T01:55:25.013Z,75.53
2023-03-29T02:00:29.760Z,75.79
2023-03-29T02:05:35.921Z,75.95
2023-03-29T02:10:38.396Z,76.29
2023-03-29T02:15:40.851Z,76.30
2023-03-29T02:20:47.386Z,75.15
2023-03-29T02:25:53.606Z,76.13
2023-03-29T02:31:14.814Z,76.73
2023-03-29T02:36:20.134Z,77.07
2023-03-29T02:41:24.690Z,77.33
2023-03-29T02:46:31.002Z,77.61
2023-03-29T02:51:34.993Z,77.70
2023-03-29T02:56:50.309Z,77.90
2023-03-29T03:01:53.716Z,78.07
2023-03-29T03:06:56.948Z,77.61
2023-03-29T03:12:00.331Z,77.59
2023-03-29T03:17:05.179Z,75.02
2023-03-29T03:22:09.928Z,74.37
2023-03-29T03:27:14.708Z,76.01
2023-03-29T03:32:17.613Z,76.53
2023-03-29T03:37:40.960Z,77.09
2023-03-29T03:42:44.044Z,77.25
2023-03-29T03:47:46.730Z,77.13
2023-03-29T03:53:02.622Z,77.61
2023-03-29T03:58:18.051Z,77.83
2023-03-29T04:03:24.135Z,78.09
2023-03-29T04:08:35.357Z,78.20
2023-03-29T04:13:48.279Z,78.25
2023-03-29T04:19:13.946Z,78.33
2023-03-29T04:24:23.977Z,78.41
2023-03-29T04:29:46.845Z,78.40
2023-03-29T04:34:58.140Z,78.51
2023-03-29T04:40:00.460Z,78.70
2023-03-29T04:45:07.151Z,78.92
2023-03-29T04:50:25.888Z,79.07
2023-03-29T04:55:28.269Z,79.24
2023-03-29T05:00:38.065Z,78.61
2023-03-29T05:06:10.632Z,77.85
2023-03-29T05:11:14.323Z,78.44
2023-03-29T05:16:30.258Z,78.64
2023-03-29T05:21:34.441Z,78.83
2023-03-29T05:26:40.577Z,78.87
2023-03-29T05:31:43.089Z,78.77
2023-03-29T05:36:46.379Z,78.41
2023-03-29T05:41:49.455Z,76.17
2023-03-29T05:47:15.556Z,76.25
2023-03-29T05:52:18.602Z,75.01
2023-03-29T05:57:21.082Z,74.87
2023-03-29T06:02:26.223Z,74.54
2023-03-29T06:07:29.956Z,74.54
2023-03-29T06:13:01.991Z,74.41
2023-03-29T06:18:07.740Z,74.14
2023-03-29T06:23:10.729Z,73.90
2023-03-29T06:28:15.674Z,73.49
2023-03-29T06:33:18.882Z,73.19
2023-03-29T06:38:28.633Z,72.65
2023-03-29T06:43:33.320Z,72.39
2023-03-29T06:48:48.729Z,72.07
2023-03-29T06:53:54.857Z,71.60
2023-03-29T06:58:57.393Z,70.85
2023-03-29T07:04:09.451Z,70.18
2023-03-29T07:09:36.431Z,69.49
2023-03-29T07:15:02.262Z,68.52
2023-03-29T07:20:27.257Z,68.10
2023-03-29T07:25:50.497Z,67.39
2023-03-29T07:31:12.537Z,67.06
2023-03-29T07:36:34.502Z,65.07
2023-03-29T07:41:46.116Z,64.13
2023-03-29T07:46:51.254Z,63.95
2023-03-29T07:52:30.107Z,63.13
2023-03-29T07:57:44.200Z,62.39
2023-03-29T08:03:32.645Z,61.53
2023-03-29T08:09:17.371Z,59.33
2023-03-29T08:14:38.557Z,59.31
2023-03-29T08:20:18.337Z,59.92
2023-03-29T08:25:45.505Z,59.95
2023-03-29T08:31:14.752Z,60.42
2023-03-29T08:36:55.917Z,60.03
2023-03-29T08:42:30.922Z,58.98
2023-03-29T08:48:12.464Z,58.53
2023-03-29T08:53:33.791Z,58.80
2023-03-29T08:58:48.021Z,57.79
2023-03-29T09:04:31.802Z,56.26
2023-03-29T09:10:11.492Z,54.73
2023-03-29T09:16:25.559Z,53.87
2023-03-29T09:22:30.650Z,52.11
2023-03-29T09:27:45.597Z,51.33
2023-03-29T09:33:45.092Z,49.81
2023-03-29T09:39:02.428Z,49.29
2023-03-29T09:44:31.300Z,50.81
2023-03-29T09:50:05.255Z,51.00
2023-03-29T09:55:40.184Z,49.95
2023-03-29T10:01:15.560Z,47.32
2023-03-29T10:06:32.709Z,47.88
2023-03-29T10:12:04.770Z,48.01
2023-03-29T10:17:38.037Z,47.71
2023-03-29T10:23:03.897Z,45.75
2023-03-29T10:28:16.220Z,45.81
2023-03-29T10:34:01.455Z,46.27
2023-03-29T10:39:29.950Z,45.03
2023-03-29T10:44:47.334Z,45.10
2023-03-29T10:50:06.185Z,45.94
2023-03-29T10:55:18.737Z,47.16
2023-03-29T11:00:40.758Z,45.89
2023-03-29T11:06:46.202Z,45.85
2023-03-29T11:13:08.433Z,46.21
2023-03-29T11:19:26.385Z,46.81
2023-03-29T11:25:19.180Z,46.07
2023-03-29T11:31:18.379Z,46.24
2023-03-29T11:37:28.148Z,46.51
2023-03-29T11:43:01.398Z,45.89
2023-03-29T11:48:14.176Z,45.16
2023-03-29T11:54:02.871Z,45.25
2023-03-29T11:59:58.817Z,43.40
2023-03-29T12:06:05.090Z,43.22
2023-03-29T12:11:49.127Z,43.83
2023-03-29T12:17:05.525Z,43.78
2023-03-29T12:22:53.328Z,42.54
2023-03-29T12:28:26.635Z,42.32
2023-03-29T12:34:36.237Z,42.71
2023-03-29T12:40:52.006Z,42.48
2023-03-29T12:46:56.057Z,41.49
2023-03-29T12:52:36.812Z,40.97
2023-03-29T12:58:08.435Z,41.16
2023-03-29T13:03:57.464Z,41.68
2023-03-29T13:09:46.510Z,40.67
2023-03-29T13:15:36.819Z,41.32
2023-03-29T13:21:39.138Z,41.43
2023-03-29T13:27:13.903Z,40.86
2023-03-29T13:33:13.897Z,39.97
2023-03-29T13:38:25.983Z,40.37
2023-03-29T13:44:08.937Z,40.32
2023-03-29T13:49:34.405Z,41.26
2023-03-29T13:55:17.998Z,41.61
2023-03-29T14:00:37.139Z,41.68
2023-03-29T14:05:44.238Z,42.13
2023-03-29T14:10:50.119Z,42.60
2023-03-29T14:16:12.990Z,41.71
2023-03-29T14:21:15.050Z,41.48
2023-03-29T14:26:22.759Z,41.50
2023-03-29T14:31:52.299Z,40.97
2023-03-29T14:36:54.477Z,40.29
2023-03-29T14:41:57.201Z,40.58
2023-03-29T14:47:03.385Z,40.79
2023-03-29T14:52:14.843Z,40.49
2023-03-29T14:57:20.789Z,40.39
2023-03-29T15:02:36.105Z,40.40
2023-03-29T15:07:43.236Z,40.67
2023-03-29T15:12:46.653Z,41.03
2023-03-29T15:17:52.898Z,41.55
2023-03-29T15:23:17.804Z,42.01
2023-03-29T15:28:44.825Z,42.83
2023-03-29T15:34:24.182Z,42.92
2023-03-29T15:39:35.652Z,42.90
2023-03-29T15:44:41.302Z,43.17
2023-03-29T15:49:53.611Z,42.87
2023-03-29T15:55:00.611Z,42.56
2023-03-29T16:00:08.024Z,42.78
2023-03-29T16:05:14.823Z,43.19
2023-03-29T16:10:21.124Z,43.72
2023-03-29T16:15:33.847Z,44.04
2023-03-29T16:20:38.086Z,44.61
2023-03-29T16:26:05.035Z,44.80
2023-03-29T16:31:17.262Z,44.73
2023-03-29T16:36:24.617Z,45.00
2023-03-29T16:41:38.698Z,45.46
2023-03-29T16:46:46.209Z,45.77
2023-03-29T16:51:48.870Z,46.21
2023-03-29T16:56:53.474Z,46.64
2023-03-29T17:01:58.467Z,46.95
2023-03-29T17:07:05.552Z,47.31
2023-03-29T17:12:08.156Z,47.50
2023-03-29T17:17:11.170Z,47.45
2023-03-29T17:22:13.281Z,47.47
2023-03-29T17:27:15.957Z,47.60
2023-03-29T17:32:20.505Z,48.02
2023-03-29T17:37:29.950Z,48.44
2023-03-29T17:42:34.296Z,48.74
2023-03-29T17:47:43.306Z,49.06
2023-03-29T17:52:48.806Z,49.29
2023-03-29T17:57:51.793Z,49.41
2023-03-29T18:02:54.495Z,49.69
2023-03-29T18:07:57.347Z,50.08
2023-03-29T18:13:01.251Z,50.41
2023-03-29T18:18:04.404Z,50.76
2023-03-29T18:23:09.194Z,51.22
2023-03-29T18:28:14.579Z,51.65
2023-03-29T18:33:25.372Z,51.96
2023-03-29T18:38:27.410Z,52.34
2023-03-29T18:43:34.012Z,52.80
2023-03-29T18:48:42.341Z,53.21
2023-03-29T18:53:44.872Z,53.43
2023-03-29T18:58:48.248Z,53.69
2023-03-29T19:03:50.305Z,54.30
2023-03-29T19:08:58.279Z,54.97
2023-03-29T19:14:00.824Z,55.35
2023-03-29T19:19:04.976Z,55.97
2023-03-29T19:24:08.162Z,56.49
2023-03-29T19:29:13.090Z,56.39
2023-03-29T19:34:21.120Z,56.86
2023-03-29T19:39:25.006Z,57.27
2023-03-29T19:44:28.277Z,57.50
2023-03-29T19:49:31.039Z,57.41
2023-03-29T19:54:33.363Z,57.47
2023-03-29T19:59:39.087Z,57.64
2023-03-29T20:04:41.745Z,57.53
2023-03-29T20:09:45.507Z,57.67
2023-03-29T20:14:56.491Z,57.77
2023-03-29T20:19:59.027Z,58.00
2023-03-29T20:25:01.080Z,58.19
2023-03-29T20:30:04.737Z,58.42
2023-03-29T20:35:07.185Z,58.72
2023-03-29T20:40:11.232Z,58.96
2023-03-29T20:45:18.659Z,59.14
2023-03-29T20:50:26.697Z,59.29
2023-03-29T20:55:30.503Z,59.32
2023-03-29T21:00:38.387Z,59.46
2023-03-29T21:05:40.845Z,59.55
2023-03-29T21:10:51.691Z,59.66
2023-03-29T21:15:57.141Z,59.97
2023-03-29T21:21:04.994Z,59.98
2023-03-29T21:26:12.691Z,60.27
2023-03-29T21:31:17.597Z,60.52
2023-03-29T21:36:20.985Z,60.63
2023-03-29T21:41:27.082Z,60.73
2023-03-29T21:46:34.277Z,60.98
2023-03-29T21:51:46.769Z,61.14
2023-03-29T21:56:51.128Z,61.22
2023-03-29T22:01:53.558Z,61.50
2023-03-29T22:06:56.174Z,61.77
2023-03-29T22:11:59.934Z,61.99
2023-03-29T22:17:07.008Z,62.16
2023-03-29T22:22:26.485Z,62.39
2023-03-29T22:27:30.702Z,62.40
2023-03-29T22:32:35.859Z,61.61
2023-03-29T22:37:44.194Z,61.14
2023-03-29T22:42:49.398Z,60.97
2023-03-29T22:48:36.028Z,60.82
2023-03-29T22:53:39.079Z,60.66
2023-03-29T22:59:06.539Z,60.49
2023-03-29T23:04:38.847Z,60.36
2023-03-29T23:10:42.921Z,60.45
2023-03-29T23:16:34.025Z,60.66
2023-03-29T23:21:47.152Z,60.85
2023-03-29T23:27:29.511Z,61.30
2023-03-29T23:33:15.823Z,61.89
2023-03-29T23:38:44.949Z,62.30
2023-03-29T23:43:57.703Z,62.50
2023-03-29T23:49:51.453Z,62.67
2023-03-29T23:55:30.897Z,63.09
